sensor_id;sensor_type;location;lat;lon;timestamp;P1;durP1;ratioP1;P2;durP2;ratioP2
42700;SDS011;28316;49.504;8.526;2023-12-20T00:01:32;4.90;;;2.58;;
42700;SDS011;28316;49.504;8.526;2023-12-20T00:03:58;3.33;;;2.08;;
42700;SDS011;28316;49.504;8.526;2023-12-20T00:06:24;4.82;;;2.63;;
42700;SDS011;28316;49.504;8.526;2023-12-20T00:08:50;2.65;;;1.70;;
42700;SDS011;28316;49.504;8.526;2023-12-20T00:11:15;4.85;;;3.25;;
42700;SDS011;28316;49.504;8.526;2023-12-20T00:13:41;5.00;;;2.35;;
42700;SDS011;28316;49.504;8.526;2023-12-20T00:16:07;6.53;;;2.47;;
42700;SDS011;28316;49.504;8.526;2023-12-20T00:18:32;4.47;;;2.83;;
42700;SDS011;28316;49.504;8.526;2023-12-20T00:20:58;6.57;;;2.85;;
42700;SDS011;28316;49.504;8.526;2023-12-20T00:23:24;4.43;;;1.95;;
42700;SDS011;28316;49.504;8.526;2023-12-20T00:25:49;2.72;;;1.70;;
42700;SDS011;28316;49.504;8.526;2023-12-20T00:28:15;4.75;;;2.67;;
42700;SDS011;28316;49.504;8.526;2023-12-20T00:30:41;5.50;;;3.25;;
42700;SDS011;28316;49.504;8.526;2023-12-20T00:33:06;3.38;;;2.15;;
42700;SDS011;28316;49.504;8.526;2023-12-20T00:35:32;3.42;;;1.90;;
42700;SDS011;28316;49.504;8.526;2023-12-20T00:37:58;3.20;;;1.90;;
42700;SDS011;28316;49.504;8.526;2023-12-20T00:40:24;3.30;;;2.10;;
42700;SDS011;28316;49.504;8.526;2023-12-20T00:42:50;4.13;;;1.83;;
42700;SDS011;28316;49.504;8.526;2023-12-20T00:45:16;2.92;;;1.98;;
42700;SDS011;28316;49.504;8.526;2023-12-20T00:47:41;2.95;;;1.95;;
42700;SDS011;28316;49.504;8.526;2023-12-20T00:50:07;7.10;;;1.95;;
42700;SDS011;28316;49.504;8.526;2023-12-20T00:52:34;2.92;;;1.60;;
42700;SDS011;28316;49.504;8.526;2023-12-20T00:55:00;2.67;;;1.52;;
42700;SDS011;28316;49.504;8.526;2023-12-20T00:57:25;2.30;;;1.38;;
42700;SDS011;28316;49.504;8.526;2023-12-20T00:59:51;2.90;;;1.63;;
42700;SDS011;28316;49.504;8.526;2023-12-20T01:02:17;3.70;;;1.88;;
42700;SDS011;28316;49.504;8.526;2023-12-20T01:04:43;1.85;;;1.38;;
42700;SDS011;28316;49.504;8.526;2023-12-20T01:07:09;3.65;;;1.58;;
42700;SDS011;28316;49.504;8.526;2023-12-20T01:09:35;1.90;;;1.15;;
42700;SDS011;28316;49.504;8.526;2023-12-20T01:12:01;2.83;;;1.88;;
42700;SDS011;28316;49.504;8.526;2023-12-20T01:14:26;4.97;;;1.27;;
42700;SDS011;28316;49.504;8.526;2023-12-20T01:16:52;7.57;;;1.42;;
42700;SDS011;28316;49.504;8.526;2023-12-20T01:19:18;3.47;;;1.50;;
42700;SDS011;28316;49.504;8.526;2023-12-20T01:21:43;3.13;;;2.05;;
42700;SDS011;28316;49.504;8.526;2023-12-20T01:24:09;3.30;;;1.75;;
42700;SDS011;28316;49.504;8.526;2023-12-20T01:26:35;4.60;;;1.48;;
42700;SDS011;28316;49.504;8.526;2023-12-20T01:29:01;3.47;;;1.75;;
42700;SDS011;28316;49.504;8.526;2023-12-20T01:31:27;3.55;;;1.70;;
42700;SDS011;28316;49.504;8.526;2023-12-20T01:33:52;10.73;;;1.77;;
42700;SDS011;28316;49.504;8.526;2023-12-20T01:36:18;7.95;;;1.25;;
42700;SDS011;28316;49.504;8.526;2023-12-20T01:38:44;2.65;;;1.25;;
42700;SDS011;28316;49.504;8.526;2023-12-20T01:41:10;1.55;;;1.02;;
42700;SDS011;28316;49.504;8.526;2023-12-20T01:43:36;3.63;;;1.33;;
42700;SDS011;28316;49.504;8.526;2023-12-20T01:46:02;2.55;;;1.35;;
42700;SDS011;28316;49.504;8.526;2023-12-20T01:48:30;1.38;;;0.70;;
42700;SDS011;28316;49.504;8.526;2023-12-20T01:53:25;1.85;;;0.70;;
42700;SDS011;28316;49.504;8.526;2023-12-20T01:55:54;3.83;;;0.90;;
42700;SDS011;28316;49.504;8.526;2023-12-20T01:58:21;1.67;;;1.15;;
42700;SDS011;28316;49.504;8.526;2023-12-20T02:00:48;2.10;;;1.10;;
42700;SDS011;28316;49.504;8.526;2023-12-20T02:03:14;1.52;;;1.05;;
42700;SDS011;28316;49.504;8.526;2023-12-20T02:05:40;1.60;;;0.88;;
42700;SDS011;28316;49.504;8.526;2023-12-20T02:08:06;1.25;;;0.85;;
42700;SDS011;28316;49.504;8.526;2023-12-20T02:10:32;0.95;;;0.80;;
42700;SDS011;28316;49.504;8.526;2023-12-20T02:12:59;1.48;;;0.93;;
42700;SDS011;28316;49.504;8.526;2023-12-20T02:15:25;1.60;;;1.02;;
42700;SDS011;28316;49.504;8.526;2023-12-20T02:17:50;1.63;;;0.90;;
42700;SDS011;28316;49.504;8.526;2023-12-20T02:20:16;1.10;;;0.98;;
42700;SDS011;28316;49.504;8.526;2023-12-20T02:22:42;1.27;;;0.98;;
42700;SDS011;28316;49.504;8.526;2023-12-20T02:25:08;2.10;;;1.05;;
42700;SDS011;28316;49.504;8.526;2023-12-20T02:27:34;1.08;;;0.65;;
42700;SDS011;28316;49.504;8.526;2023-12-20T02:30:00;0.85;;;0.52;;
42700;SDS011;28316;49.504;8.526;2023-12-20T02:32:26;1.67;;;0.75;;
42700;SDS011;28316;49.504;8.526;2023-12-20T02:34:54;1.33;;;1.08;;
42700;SDS011;28316;49.504;8.526;2023-12-20T02:37:20;3.47;;;0.90;;
42700;SDS011;28316;49.504;8.526;2023-12-20T02:39:46;2.00;;;0.80;;
42700;SDS011;28316;49.504;8.526;2023-12-20T02:42:12;0.75;;;0.60;;
42700;SDS011;28316;49.504;8.526;2023-12-20T02:44:38;1.40;;;0.82;;
42700;SDS011;28316;49.504;8.526;2023-12-20T02:47:04;2.53;;;1.27;;
42700;SDS011;28316;49.504;8.526;2023-12-20T02:49:30;1.40;;;0.95;;
42700;SDS011;28316;49.504;8.526;2023-12-20T02:51:55;0.77;;;0.65;;
42700;SDS011;28316;49.504;8.526;2023-12-20T02:54:21;2.90;;;0.95;;
42700;SDS011;28316;49.504;8.526;2023-12-20T02:56:47;1.33;;;0.73;;
42700;SDS011;28316;49.504;8.526;2023-12-20T02:59:13;2.60;;;1.08;;
42700;SDS011;28316;49.504;8.526;2023-12-20T03:01:43;3.10;;;1.00;;
42700;SDS011;28316;49.504;8.526;2023-12-20T03:04:10;1.75;;;0.90;;
42700;SDS011;28316;49.504;8.526;2023-12-20T03:06:36;4.07;;;1.55;;
42700;SDS011;28316;49.504;8.526;2023-12-20T03:09:03;6.68;;;1.23;;
42700;SDS011;28316;49.504;8.526;2023-12-20T03:11:29;1.10;;;0.98;;
42700;SDS011;28316;49.504;8.526;2023-12-20T03:13:55;2.67;;;1.15;;
42700;SDS011;28316;49.504;8.526;2023-12-20T03:16:22;1.73;;;1.17;;
42700;SDS011;28316;49.504;8.526;2023-12-20T03:18:48;1.45;;;0.70;;
42700;SDS011;28316;49.504;8.526;2023-12-20T03:21:14;0.82;;;0.80;;
42700;SDS011;28316;49.504;8.526;2023-12-20T03:23:40;2.25;;;1.00;;
42700;SDS011;28316;49.504;8.526;2023-12-20T03:26:06;3.60;;;1.08;;
42700;SDS011;28316;49.504;8.526;2023-12-20T03:28:33;2.33;;;1.13;;
42700;SDS011;28316;49.504;8.526;2023-12-20T03:30:59;1.23;;;0.85;;
42700;SDS011;28316;49.504;8.526;2023-12-20T03:33:27;1.92;;;1.50;;
42700;SDS011;28316;49.504;8.526;2023-12-20T03:35:54;7.10;;;1.80;;
42700;SDS011;28316;49.504;8.526;2023-12-20T03:38:20;3.10;;;1.58;;
42700;SDS011;28316;49.504;8.526;2023-12-20T03:40:49;1.13;;;0.70;;
42700;SDS011;28316;49.504;8.526;2023-12-20T03:43:15;1.55;;;1.05;;
42700;SDS011;28316;49.504;8.526;2023-12-20T03:45:41;1.25;;;0.98;;
42700;SDS011;28316;49.504;8.526;2023-12-20T03:48:08;3.78;;;1.85;;
42700;SDS011;28316;49.504;8.526;2023-12-20T03:50:34;3.42;;;1.38;;
42700;SDS011;28316;49.504;8.526;2023-12-20T03:53:00;1.15;;;1.05;;
42700;SDS011;28316;49.504;8.526;2023-12-20T03:55:26;2.63;;;1.23;;
42700;SDS011;28316;49.504;8.526;2023-12-20T03:57:52;1.95;;;1.15;;
42700;SDS011;28316;49.504;8.526;2023-12-20T04:00:18;3.40;;;1.55;;
42700;SDS011;28316;49.504;8.526;2023-12-20T04:02:44;7.90;;;1.90;;
42700;SDS011;28316;49.504;8.526;2023-12-20T04:05:10;3.25;;;1.50;;
42700;SDS011;28316;49.504;8.526;2023-12-20T04:07:36;2.13;;;1.23;;
42700;SDS011;28316;49.504;8.526;2023-12-20T04:10:02;2.60;;;1.65;;
42700;SDS011;28316;49.504;8.526;2023-12-20T04:12:29;2.75;;;1.88;;
42700;SDS011;28316;49.504;8.526;2023-12-20T04:14:55;3.10;;;1.77;;
42700;SDS011;28316;49.504;8.526;2023-12-20T04:17:22;1.27;;;1.13;;
42700;SDS011;28316;49.504;8.526;2023-12-20T04:19:48;1.65;;;1.42;;
42700;SDS011;28316;49.504;8.526;2023-12-20T04:22:15;2.88;;;1.95;;
42700;SDS011;28316;49.504;8.526;2023-12-20T04:24:42;2.78;;;1.80;;
42700;SDS011;28316;49.504;8.526;2023-12-20T04:27:08;4.65;;;2.10;;
42700;SDS011;28316;49.504;8.526;2023-12-20T04:29:34;3.72;;;2.22;;
42700;SDS011;28316;49.504;8.526;2023-12-20T04:31:59;2.65;;;1.58;;
42700;SDS011;28316;49.504;8.526;2023-12-20T04:34:25;4.80;;;2.20;;
42700;SDS011;28316;49.504;8.526;2023-12-20T04:36:51;3.03;;;2.42;;
42700;SDS011;28316;49.504;8.526;2023-12-20T04:39:17;3.90;;;1.75;;
42700;SDS011;28316;49.504;8.526;2023-12-20T04:41:43;2.75;;;2.03;;
42700;SDS011;28316;49.504;8.526;2023-12-20T04:44:09;2.58;;;1.40;;
42700;SDS011;28316;49.504;8.526;2023-12-20T04:46:38;2.10;;;1.35;;
42700;SDS011;28316;49.504;8.526;2023-12-20T04:49:04;2.22;;;1.40;;
42700;SDS011;28316;49.504;8.526;2023-12-20T04:51:32;2.35;;;1.10;;
42700;SDS011;28316;49.504;8.526;2023-12-20T04:53:59;1.27;;;0.82;;
42700;SDS011;28316;49.504;8.526;2023-12-20T04:56:25;1.48;;;0.75;;
42700;SDS011;28316;49.504;8.526;2023-12-20T04:58:51;5.93;;;1.60;;
42700;SDS011;28316;49.504;8.526;2023-12-20T05:01:17;1.33;;;0.95;;
42700;SDS011;28316;49.504;8.526;2023-12-20T05:03:42;2.08;;;1.13;;
42700;SDS011;28316;49.504;8.526;2023-12-20T05:06:09;1.58;;;1.27;;
42700;SDS011;28316;49.504;8.526;2023-12-20T05:08:35;2.10;;;1.00;;
42700;SDS011;28316;49.504;8.526;2023-12-20T05:11:01;1.95;;;1.17;;
42700;SDS011;28316;49.504;8.526;2023-12-20T05:13:27;2.00;;;1.33;;
42700;SDS011;28316;49.504;8.526;2023-12-20T05:15:53;1.25;;;1.13;;
42700;SDS011;28316;49.504;8.526;2023-12-20T05:18:20;2.28;;;1.10;;
42700;SDS011;28316;49.504;8.526;2023-12-20T05:20:46;0.68;;;0.65;;
42700;SDS011;28316;49.504;8.526;2023-12-20T05:23:12;1.35;;;0.95;;
42700;SDS011;28316;49.504;8.526;2023-12-20T05:25:39;1.10;;;0.77;;
42700;SDS011;28316;49.504;8.526;2023-12-20T05:28:05;1.33;;;1.02;;
42700;SDS011;28316;49.504;8.526;2023-12-20T05:30:31;1.85;;;0.82;;
42700;SDS011;28316;49.504;8.526;2023-12-20T05:32:56;0.75;;;0.63;;
42700;SDS011;28316;49.504;8.526;2023-12-20T05:35:22;0.93;;;0.65;;
42700;SDS011;28316;49.504;8.526;2023-12-20T05:37:48;1.08;;;0.95;;
42700;SDS011;28316;49.504;8.526;2023-12-20T05:40:15;1.30;;;0.77;;
42700;SDS011;28316;49.504;8.526;2023-12-20T05:42:41;2.25;;;0.90;;
42700;SDS011;28316;49.504;8.526;2023-12-20T05:45:07;1.60;;;1.02;;
42700;SDS011;28316;49.504;8.526;2023-12-20T05:47:34;1.88;;;0.85;;
42700;SDS011;28316;49.504;8.526;2023-12-20T05:50:00;1.40;;;1.00;;
42700;SDS011;28316;49.504;8.526;2023-12-20T05:52:26;1.85;;;1.10;;
42700;SDS011;28316;49.504;8.526;2023-12-20T05:54:51;1.98;;;0.88;;
42700;SDS011;28316;49.504;8.526;2023-12-20T05:57:17;3.63;;;1.58;;
42700;SDS011;28316;49.504;8.526;2023-12-20T05:59:43;3.15;;;1.58;;
42700;SDS011;28316;49.504;8.526;2023-12-20T06:02:08;1.70;;;1.00;;
42700;SDS011;28316;49.504;8.526;2023-12-20T06:04:34;1.70;;;1.10;;
42700;SDS011;28316;49.504;8.526;2023-12-20T06:07:00;3.30;;;1.58;;
42700;SDS011;28316;49.504;8.526;2023-12-20T06:09:28;4.15;;;1.85;;
42700;SDS011;28316;49.504;8.526;2023-12-20T06:11:54;3.25;;;1.70;;
42700;SDS011;28316;49.504;8.526;2023-12-20T06:14:20;4.40;;;2.65;;
42700;SDS011;28316;49.504;8.526;2023-12-20T06:16:46;3.85;;;2.53;;
42700;SDS011;28316;49.504;8.526;2023-12-20T06:19:12;3.60;;;1.98;;
42700;SDS011;28316;49.504;8.526;2023-12-20T06:21:38;5.95;;;2.08;;
42700;SDS011;28316;49.504;8.526;2023-12-20T06:24:04;5.07;;;2.53;;
42700;SDS011;28316;49.504;8.526;2023-12-20T06:26:30;4.07;;;2.50;;
42700;SDS011;28316;49.504;8.526;2023-12-20T06:28:55;3.25;;;1.85;;
42700;SDS011;28316;49.504;8.526;2023-12-20T06:31:21;4.07;;;1.95;;
42700;SDS011;28316;49.504;8.526;2023-12-20T06:33:47;5.60;;;2.95;;
42700;SDS011;28316;49.504;8.526;2023-12-20T06:36:14;4.07;;;2.50;;
42700;SDS011;28316;49.504;8.526;2023-12-20T06:38:40;3.22;;;1.40;;
42700;SDS011;28316;49.504;8.526;2023-12-20T06:41:07;3.78;;;2.03;;
42700;SDS011;28316;49.504;8.526;2023-12-20T06:43:33;3.40;;;1.77;;
42700;SDS011;28316;49.504;8.526;2023-12-20T06:46:00;3.25;;;1.63;;
42700;SDS011;28316;49.504;8.526;2023-12-20T06:48:26;3.20;;;2.05;;
42700;SDS011;28316;49.504;8.526;2023-12-20T06:50:52;5.28;;;2.75;;
42700;SDS011;28316;49.504;8.526;2023-12-20T06:53:18;2.85;;;1.58;;
42700;SDS011;28316;49.504;8.526;2023-12-20T06:55:44;5.40;;;1.95;;
42700;SDS011;28316;49.504;8.526;2023-12-20T06:58:09;2.17;;;1.70;;
42700;SDS011;28316;49.504;8.526;2023-12-20T07:00:35;3.28;;;1.92;;
42700;SDS011;28316;49.504;8.526;2023-12-20T07:03:01;3.13;;;1.75;;
42700;SDS011;28316;49.504;8.526;2023-12-20T07:05:27;5.82;;;1.92;;
42700;SDS011;28316;49.504;8.526;2023-12-20T07:07:52;3.58;;;1.52;;
42700;SDS011;28316;49.504;8.526;2023-12-20T07:10:18;2.80;;;1.70;;
42700;SDS011;28316;49.504;8.526;2023-12-20T07:12:44;3.03;;;1.38;;
42700;SDS011;28316;49.504;8.526;2023-12-20T07:15:10;1.20;;;0.65;;
42700;SDS011;28316;49.504;8.526;2023-12-20T07:17:37;1.75;;;1.30;;
42700;SDS011;28316;49.504;8.526;2023-12-20T07:20:03;2.65;;;1.85;;
42700;SDS011;28316;49.504;8.526;2023-12-20T07:22:31;2.65;;;1.92;;
42700;SDS011;28316;49.504;8.526;2023-12-20T07:24:58;2.95;;;1.83;;
42700;SDS011;28316;49.504;8.526;2023-12-20T07:27:25;3.22;;;1.35;;
42700;SDS011;28316;49.504;8.526;2023-12-20T07:29:51;6.20;;;2.22;;
42700;SDS011;28316;49.504;8.526;2023-12-20T07:32:17;1.13;;;0.90;;
42700;SDS011;28316;49.504;8.526;2023-12-20T07:34:44;1.70;;;1.02;;
42700;SDS011;28316;49.504;8.526;2023-12-20T07:37:10;2.38;;;1.05;;
42700;SDS011;28316;49.504;8.526;2023-12-20T07:39:37;1.73;;;1.23;;
42700;SDS011;28316;49.504;8.526;2023-12-20T07:42:07;3.50;;;1.40;;
42700;SDS011;28316;49.504;8.526;2023-12-20T07:47:08;6.70;;;1.90;;
42700;SDS011;28316;49.504;8.526;2023-12-20T07:49:34;13.82;;;1.90;;
42700;SDS011;28316;49.504;8.526;2023-12-20T07:52:00;1.20;;;0.85;;
42700;SDS011;28316;49.504;8.526;2023-12-20T07:54:26;4.28;;;1.60;;
42700;SDS011;28316;49.504;8.526;2023-12-20T07:56:51;3.03;;;0.93;;
42700;SDS011;28316;49.504;8.526;2023-12-20T07:59:17;4.25;;;1.73;;
42700;SDS011;28316;49.504;8.526;2023-12-20T08:01:43;3.15;;;1.20;;
42700;SDS011;28316;49.504;8.526;2023-12-20T08:04:09;6.38;;;1.95;;
42700;SDS011;28316;49.504;8.526;2023-12-20T08:06:35;1.42;;;1.17;;
42700;SDS011;28316;49.504;8.526;2023-12-20T08:09:00;10.65;;;2.08;;
42700;SDS011;28316;49.504;8.526;2023-12-20T08:11:26;4.00;;;1.52;;
42700;SDS011;28316;49.504;8.526;2023-12-20T08:13:52;2.22;;;1.75;;
42700;SDS011;28316;49.504;8.526;2023-12-20T08:16:18;2.58;;;1.98;;
42700;SDS011;28316;49.504;8.526;2023-12-20T08:18:43;10.65;;;2.92;;
42700;SDS011;28316;49.504;8.526;2023-12-20T08:21:09;5.22;;;2.53;;
42700;SDS011;28316;49.504;8.526;2023-12-20T08:23:36;5.35;;;2.08;;
42700;SDS011;28316;49.504;8.526;2023-12-20T08:26:05;3.97;;;1.92;;
42700;SDS011;28316;49.504;8.526;2023-12-20T08:28:33;6.07;;;2.53;;
42700;SDS011;28316;49.504;8.526;2023-12-20T08:30:59;4.22;;;2.75;;
42700;SDS011;28316;49.504;8.526;2023-12-20T08:33:25;3.60;;;2.28;;
42700;SDS011;28316;49.504;8.526;2023-12-20T08:35:51;9.32;;;2.85;;
42700;SDS011;28316;49.504;8.526;2023-12-20T08:38:17;3.58;;;1.85;;
42700;SDS011;28316;49.504;8.526;2023-12-20T08:40:43;4.15;;;1.52;;
42700;SDS011;28316;49.504;8.526;2023-12-20T08:43:09;1.92;;;1.05;;
42700;SDS011;28316;49.504;8.526;2023-12-20T08:45:35;1.63;;;1.23;;
42700;SDS011;28316;49.504;8.526;2023-12-20T08:48:01;2.17;;;0.63;;
42700;SDS011;28316;49.504;8.526;2023-12-20T08:50:28;0.63;;;0.60;;
42700;SDS011;28316;49.504;8.526;2023-12-20T08:52:54;1.80;;;0.90;;
42700;SDS011;28316;49.504;8.526;2023-12-20T08:55:20;2.08;;;1.20;;
42700;SDS011;28316;49.504;8.526;2023-12-20T08:57:46;2.92;;;1.05;;
42700;SDS011;28316;49.504;8.526;2023-12-20T09:00:12;1.25;;;0.52;;
42700;SDS011;28316;49.504;8.526;2023-12-20T09:02:38;0.85;;;0.70;;
42700;SDS011;28316;49.504;8.526;2023-12-20T09:05:04;1.10;;;0.95;;
42700;SDS011;28316;49.504;8.526;2023-12-20T09:07:30;1.23;;;1.13;;
42700;SDS011;28316;49.504;8.526;2023-12-20T09:09:57;0.60;;;0.60;;
42700;SDS011;28316;49.504;8.526;2023-12-20T09:12:23;2.83;;;1.00;;
42700;SDS011;28316;49.504;8.526;2023-12-20T09:14:50;2.63;;;1.70;;
42700;SDS011;28316;49.504;8.526;2023-12-20T09:17:17;1.35;;;0.80;;
42700;SDS011;28316;49.504;8.526;2023-12-20T09:19:44;1.00;;;0.55;;
42700;SDS011;28316;49.504;8.526;2023-12-20T09:22:10;3.28;;;1.17;;
42700;SDS011;28316;49.504;8.526;2023-12-20T09:24:36;0.88;;;0.68;;
42700;SDS011;28316;49.504;8.526;2023-12-20T09:27:03;10.30;;;1.55;;
42700;SDS011;28316;49.504;8.526;2023-12-20T09:29:30;1.58;;;1.23;;
42700;SDS011;28316;49.504;8.526;2023-12-20T09:31:56;0.17;;;0.17;;
42700;SDS011;28316;49.504;8.526;2023-12-20T09:34:22;0.55;;;0.30;;
42700;SDS011;28316;49.504;8.526;2023-12-20T09:36:50;1.85;;;0.73;;
42700;SDS011;28316;49.504;8.526;2023-12-20T09:39:17;2.30;;;0.60;;
42700;SDS011;28316;49.504;8.526;2023-12-20T09:41:46;3.47;;;1.35;;
42700;SDS011;28316;49.504;8.526;2023-12-20T09:44:28;0.22;;;0.22;;
42700;SDS011;28316;49.504;8.526;2023-12-20T09:46:55;1.42;;;0.93;;
42700;SDS011;28316;49.504;8.526;2023-12-20T09:49:22;1.02;;;0.77;;
42700;SDS011;28316;49.504;8.526;2023-12-20T09:51:52;2.72;;;1.13;;
42700;SDS011;28316;49.504;8.526;2023-12-20T09:54:20;0.50;;;0.32;;
42700;SDS011;28316;49.504;8.526;2023-12-20T09:56:47;6.35;;;1.23;;
42700;SDS011;28316;49.504;8.526;2023-12-20T09:59:14;3.40;;;0.77;;
42700;SDS011;28316;49.504;8.526;2023-12-20T10:01:40;5.82;;;1.67;;
42700;SDS011;28316;49.504;8.526;2023-12-20T10:04:07;1.75;;;0.55;;
42700;SDS011;28316;49.504;8.526;2023-12-20T10:06:41;1.70;;;0.73;;
42700;SDS011;28316;49.504;8.526;2023-12-20T10:09:08;4.40;;;0.70;;
42700;SDS011;28316;49.504;8.526;2023-12-20T10:11:36;2.53;;;0.40;;
42700;SDS011;28316;49.504;8.526;2023-12-20T10:14:03;5.68;;;0.57;;
42700;SDS011;28316;49.504;8.526;2023-12-20T10:16:30;3.50;;;0.90;;
42700;SDS011;28316;49.504;8.526;2023-12-20T10:18:57;4.75;;;0.90;;
42700;SDS011;28316;49.504;8.526;2023-12-20T10:21:24;1.63;;;0.63;;
42700;SDS011;28316;49.504;8.526;2023-12-20T10:23:56;2.65;;;0.95;;
42700;SDS011;28316;49.504;8.526;2023-12-20T10:26:26;1.33;;;0.68;;
42700;SDS011;28316;49.504;8.526;2023-12-20T10:28:56;3.20;;;0.70;;
42700;SDS011;28316;49.504;8.526;2023-12-20T10:31:34;6.40;;;0.90;;
42700;SDS011;28316;49.504;8.526;2023-12-20T10:34:03;1.00;;;0.68;;
42700;SDS011;28316;49.504;8.526;2023-12-20T10:36:30;1.27;;;0.55;;
42700;SDS011;28316;49.504;8.526;2023-12-20T10:38:57;1.30;;;0.60;;
42700;SDS011;28316;49.504;8.526;2023-12-20T10:41:27;6.95;;;1.33;;
42700;SDS011;28316;49.504;8.526;2023-12-20T10:43:59;5.88;;;1.10;;
42700;SDS011;28316;49.504;8.526;2023-12-20T10:46:32;4.20;;;0.63;;
42700;SDS011;28316;49.504;8.526;2023-12-20T10:48:59;5.13;;;1.48;;
42700;SDS011;28316;49.504;8.526;2023-12-20T10:51:27;6.95;;;0.65;;
42700;SDS011;28316;49.504;8.526;2023-12-20T10:53:54;6.13;;;0.95;;
42700;SDS011;28316;49.504;8.526;2023-12-20T10:56:21;9.35;;;2.20;;
42700;SDS011;28316;49.504;8.526;2023-12-20T10:58:51;1.73;;;0.80;;
42700;SDS011;28316;49.504;8.526;2023-12-20T11:01:18;1.60;;;0.68;;
42700;SDS011;28316;49.504;8.526;2023-12-20T11:03:48;7.18;;;0.90;;
42700;SDS011;28316;49.504;8.526;2023-12-20T11:06:29;2.03;;;1.02;;
42700;SDS011;28316;49.504;8.526;2023-12-20T11:09:13;0.90;;;0.70;;
42700;SDS011;28316;49.504;8.526;2023-12-20T11:14:37;6.13;;;1.27;;
42700;SDS011;28316;49.504;8.526;2023-12-20T11:17:10;0.45;;;0.38;;
42700;SDS011;28316;49.504;8.526;2023-12-20T11:22:27;2.55;;;1.40;;
42700;SDS011;28316;49.504;8.526;2023-12-20T11:25:06;4.68;;;0.85;;
42700;SDS011;28316;49.504;8.526;2023-12-20T11:27:42;6.53;;;1.02;;
42700;SDS011;28316;49.504;8.526;2023-12-20T11:30:08;2.35;;;0.88;;
42700;SDS011;28316;49.504;8.526;2023-12-20T11:32:35;14.23;;;2.60;;
42700;SDS011;28316;49.504;8.526;2023-12-20T11:37:36;7.70;;;1.25;;
42700;SDS011;28316;49.504;8.526;2023-12-20T11:40:08;1.77;;;0.80;;
42700;SDS011;28316;49.504;8.526;2023-12-20T11:42:49;7.80;;;1.40;;
42700;SDS011;28316;49.504;8.526;2023-12-20T11:45:19;0.75;;;0.68;;
42700;SDS011;28316;49.504;8.526;2023-12-20T11:47:49;2.15;;;0.70;;
42700;SDS011;28316;49.504;8.526;2023-12-20T11:50:16;1.95;;;0.80;;
42700;SDS011;28316;49.504;8.526;2023-12-20T11:52:43;2.15;;;1.20;;
42700;SDS011;28316;49.504;8.526;2023-12-20T11:55:09;1.65;;;0.68;;
42700;SDS011;28316;49.504;8.526;2023-12-20T11:57:35;4.57;;;1.55;;
42700;SDS011;28316;49.504;8.526;2023-12-20T12:00:02;4.05;;;1.10;;
42700;SDS011;28316;49.504;8.526;2023-12-20T12:02:29;3.85;;;1.65;;
42700;SDS011;28316;49.504;8.526;2023-12-20T12:04:55;5.53;;;1.40;;
42700;SDS011;28316;49.504;8.526;2023-12-20T12:07:23;1.33;;;0.70;;
42700;SDS011;28316;49.504;8.526;2023-12-20T12:09:49;17.30;;;1.80;;
42700;SDS011;28316;49.504;8.526;2023-12-20T12:12:15;1.10;;;0.85;;
42700;SDS011;28316;49.504;8.526;2023-12-20T12:14:42;3.35;;;1.17;;
42700;SDS011;28316;49.504;8.526;2023-12-20T12:17:11;1.17;;;0.73;;
42700;SDS011;28316;49.504;8.526;2023-12-20T12:19:38;2.65;;;1.02;;
42700;SDS011;28316;49.504;8.526;2023-12-20T12:22:09;5.47;;;1.00;;
42700;SDS011;28316;49.504;8.526;2023-12-20T12:24:41;1.55;;;0.95;;
42700;SDS011;28316;49.504;8.526;2023-12-20T12:27:10;0.68;;;0.60;;
42700;SDS011;28316;49.504;8.526;2023-12-20T12:29:38;2.90;;;1.00;;
42700;SDS011;28316;49.504;8.526;2023-12-20T12:32:04;1.75;;;1.05;;
42700;SDS011;28316;49.504;8.526;2023-12-20T12:34:34;1.20;;;0.75;;
42700;SDS011;28316;49.504;8.526;2023-12-20T12:37:05;2.90;;;1.05;;
42700;SDS011;28316;49.504;8.526;2023-12-20T12:39:31;7.00;;;1.33;;
42700;SDS011;28316;49.504;8.526;2023-12-20T12:41:57;1.05;;;0.93;;
42700;SDS011;28316;49.504;8.526;2023-12-20T12:44:23;3.22;;;1.00;;
42700;SDS011;28316;49.504;8.526;2023-12-20T12:46:50;2.08;;;0.88;;
42700;SDS011;28316;49.504;8.526;2023-12-20T12:49:18;4.30;;;1.13;;
42700;SDS011;28316;49.504;8.526;2023-12-20T12:51:47;2.58;;;1.30;;
42700;SDS011;28316;49.504;8.526;2023-12-20T12:54:13;5.75;;;1.40;;
42700;SDS011;28316;49.504;8.526;2023-12-20T12:56:40;4.00;;;0.93;;
42700;SDS011;28316;49.504;8.526;2023-12-20T12:59:07;3.75;;;1.45;;
42700;SDS011;28316;49.504;8.526;2023-12-20T13:01:33;4.22;;;1.15;;
42700;SDS011;28316;49.504;8.526;2023-12-20T13:03:59;1.23;;;0.63;;
42700;SDS011;28316;49.504;8.526;2023-12-20T13:06:27;3.20;;;1.33;;
42700;SDS011;28316;49.504;8.526;2023-12-20T13:08:53;2.00;;;0.93;;
42700;SDS011;28316;49.504;8.526;2023-12-20T13:11:20;9.60;;;2.33;;
42700;SDS011;28316;49.504;8.526;2023-12-20T13:13:46;2.75;;;1.40;;
42700;SDS011;28316;49.504;8.526;2023-12-20T13:16:12;10.02;;;1.42;;
42700;SDS011;28316;49.504;8.526;2023-12-20T13:18:38;4.05;;;0.80;;
42700;SDS011;28316;49.504;8.526;2023-12-20T13:21:07;4.68;;;1.50;;
42700;SDS011;28316;49.504;8.526;2023-12-20T13:23:34;6.28;;;1.45;;
42700;SDS011;28316;49.504;8.526;2023-12-20T13:26:00;5.15;;;1.27;;
42700;SDS011;28316;49.504;8.526;2023-12-20T13:28:26;1.05;;;0.52;;
42700;SDS011;28316;49.504;8.526;2023-12-20T13:30:52;2.42;;;0.68;;
42700;SDS011;28316;49.504;8.526;2023-12-20T13:33:17;2.47;;;0.50;;
42700;SDS011;28316;49.504;8.526;2023-12-20T13:35:43;2.67;;;1.35;;
42700;SDS011;28316;49.504;8.526;2023-12-20T13:38:09;1.23;;;1.10;;
42700;SDS011;28316;49.504;8.526;2023-12-20T13:40:34;0.90;;;0.68;;
42700;SDS011;28316;49.504;8.526;2023-12-20T13:43:00;2.63;;;0.75;;
42700;SDS011;28316;49.504;8.526;2023-12-20T13:45:28;4.82;;;1.65;;
42700;SDS011;28316;49.504;8.526;2023-12-20T13:47:53;8.55;;;0.90;;
42700;SDS011;28316;49.504;8.526;2023-12-20T13:50:19;0.93;;;0.38;;
42700;SDS011;28316;49.504;8.526;2023-12-20T13:52:45;1.38;;;0.65;;
42700;SDS011;28316;49.504;8.526;2023-12-20T13:55:11;6.88;;;1.45;;
42700;SDS011;28316;49.504;8.526;2023-12-20T13:57:37;2.70;;;1.02;;
42700;SDS011;28316;49.504;8.526;2023-12-20T14:00:03;1.33;;;1.00;;
42700;SDS011;28316;49.504;8.526;2023-12-20T14:02:38;4.55;;;0.75;;
42700;SDS011;28316;49.504;8.526;2023-12-20T14:05:04;3.33;;;0.93;;
42700;SDS011;28316;49.504;8.526;2023-12-20T14:07:31;2.67;;;1.10;;
42700;SDS011;28316;49.504;8.526;2023-12-20T14:09:57;2.33;;;0.85;;
42700;SDS011;28316;49.504;8.526;2023-12-20T14:12:24;2.88;;;0.75;;
42700;SDS011;28316;49.504;8.526;2023-12-20T14:14:50;1.77;;;1.40;;
42700;SDS011;28316;49.504;8.526;2023-12-20T14:17:16;1.35;;;0.60;;
42700;SDS011;28316;49.504;8.526;2023-12-20T14:19:43;1.30;;;0.60;;
42700;SDS011;28316;49.504;8.526;2023-12-20T14:22:09;0.75;;;0.43;;
42700;SDS011;28316;49.504;8.526;2023-12-20T14:24:35;10.82;;;0.77;;
42700;SDS011;28316;49.504;8.526;2023-12-20T14:27:01;4.88;;;0.75;;
42700;SDS011;28316;49.504;8.526;2023-12-20T14:29:27;1.15;;;0.70;;
42700;SDS011;28316;49.504;8.526;2023-12-20T14:31:52;5.78;;;0.82;;
42700;SDS011;28316;49.504;8.526;2023-12-20T14:34:18;1.02;;;0.73;;
42700;SDS011;28316;49.504;8.526;2023-12-20T14:36:44;5.15;;;0.80;;
42700;SDS011;28316;49.504;8.526;2023-12-20T14:39:10;1.90;;;0.60;;
42700;SDS011;28316;49.504;8.526;2023-12-20T14:41:38;3.28;;;1.25;;
42700;SDS011;28316;49.504;8.526;2023-12-20T14:44:05;2.95;;;0.60;;
42700;SDS011;28316;49.504;8.526;2023-12-20T14:46:34;1.38;;;1.10;;
42700;SDS011;28316;49.504;8.526;2023-12-20T14:49:00;1.42;;;0.90;;
42700;SDS011;28316;49.504;8.526;2023-12-20T14:51:27;1.70;;;0.63;;
42700;SDS011;28316;49.504;8.526;2023-12-20T14:53:53;1.17;;;0.85;;
42700;SDS011;28316;49.504;8.526;2023-12-20T14:56:19;3.17;;;0.88;;
42700;SDS011;28316;49.504;8.526;2023-12-20T14:58:45;1.35;;;0.75;;